Time;durP1;ratioP1;P1;durP2;ratioP2;P2;SDS_P1;SDS_P2;PMS_P1;PMS_P2;Temp;Humidity;BMP_temperature;BMP_pressure;BME280_temperature;BME280_humidity;BME280_pressure;Samples;Min_cycle;Max_cycle;Signal;HPM_P1;HPM_P2
2024/03/03 00:00:29;;;;;;;23.57;22.77;;;21.30;55.40;;;;;;4985037;28;20455;-65
2024/03/03 00:02:56;;;;;;;23.13;22.33;;;21.30;55.40;;;;;;4982770;28;20503;-65
2024/03/03 00:05:22;;;;;;;23.77;22.97;;;21.30;55.40;;;;;;4979718;28;20446;-65
2024/03/03 00:07:49;;;;;;;22.67;21.97;;;21.30;55.50;;;;;;4983947;28;20470;-65
2024/03/03 00:10:16;;;;;;;22.33;21.53;;;21.30;55.50;;;;;;4981710;28;20452;-65
2024/03/03 00:12:43;;;;;;;23.20;22.40;;;21.20;55.40;;;;;;4980984;28;20447;-65
2024/03/03 00:15:11;;;;;;;23.30;22.50;;;21.30;55.50;;;;;;4984501;28;20465;-66
2024/03/03 00:17:39;;;;;;;23.10;22.30;;;21.20;55.40;;;;;;4984837;28;20446;-65
2024/03/03 00:20:07;;;;;;;23.60;22.80;;;21.20;55.40;;;;;;4981669;28;20817;-65
2024/03/03 00:22:33;;;;;;;23.03;22.23;;;21.20;55.40;;;;;;4981139;28;20835;-66
2024/03/03 00:25:01;;;;;;;23.40;22.60;;;21.20;55.40;;;;;;4983145;28;20964;-65
2024/03/03 00:27:29;;;;;;;23.10;22.30;;;21.20;55.40;;;;;;4984551;28;20459;-66
2024/03/03 00:29:56;;;;;;;22.93;22.13;;;21.20;55.50;;;;;;4982844;28;20535;-65
2024/03/03 00:32:23;;;;;;;23.10;22.30;;;21.20;55.50;;;;;;4980913;28;20443;-65
2024/03/03 00:34:52;;;;;;;22.50;21.80;;;21.10;55.50;;;;;;4981433;28;20468;-66
2024/03/03 00:37:18;;;;;;;22.80;22.00;;;21.20;55.50;;;;;;4984448;28;20940;-65
2024/03/03 00:39:45;;;;;;;22.80;22.00;;;21.10;55.50;;;;;;4984146;28;20451;-65
2024/03/03 00:42:12;;;;;;;22.70;22.00;;;21.10;55.50;;;;;;4980851;28;20574;-65
2024/03/03 00:44:39;;;;;;;23.00;22.20;;;21.20;55.60;;;;;;4980644;28;20467;-64
2024/03/03 00:47:06;;;;;;;23.00;22.20;;;21.10;55.50;;;;;;4983564;28;20450;-64
2024/03/03 00:49:32;;;;;;;23.00;22.20;;;21.10;55.50;;;;;;4984479;28;20443;-64
2024/03/03 00:52:01;;;;;;;22.77;21.97;;;21.10;55.60;;;;;;4982095;28;20469;-64
2024/03/03 00:54:28;;;;;;;23.00;22.20;;;21.10;55.60;;;;;;4980617;28;20538;-64
2024/03/03 00:56:55;;;;;;;23.30;22.50;;;21.10;55.60;;;;;;4982047;28;20440;-64
2024/03/03 00:59:21;;;;;;;34.23;32.97;;;21.10;55.60;;;;;;4984319;28;20454;-64
2024/03/03 01:01:48;;;;;;;25.80;24.90;;;21.10;55.60;;;;;;4983549;28;20479;-65
2024/03/03 01:04:15;;;;;;;24.40;23.60;;;21.10;55.60;;;;;;4980601;28;20942;-65
2024/03/03 01:06:42;;;;;;;22.07;21.30;;;21.10;55.70;;;;;;4981096;28;20448;-65
2024/03/03 01:09:10;;;;;;;22.80;22.00;;;21.10;55.70;;;;;;4983808;28;20451;-65
2024/03/03 01:11:38;;;;;;;22.90;22.00;;;21.10;55.70;;;;;;4984266;28;20440;-65
2024/03/03 01:14:04;;;;;;;22.30;21.50;;;21.10;55.80;;;;;;4981690;28;20562;-65
2024/03/03 01:16:32;;;;;;;22.17;21.37;;;21.00;55.70;;;;;;4984217;28;21122;-66
2024/03/03 01:18:59;;;;;;;22.80;22.00;;;21.10;55.80;;;;;;4986758;28;20444;-65
2024/03/03 01:21:26;;;;;;;22.60;21.80;;;21.00;55.70;;;;;;4987874;28;20502;-64
2024/03/03 01:23:52;;;;;;;22.43;21.63;;;21.00;55.70;;;;;;4986882;28;20473;-64
2024/03/03 01:26:20;;;;;;;22.90;22.10;;;21.00;55.60;;;;;;4984788;28;20444;-64
2024/03/03 01:28:47;;;;;;;22.80;22.00;;;21.00;55.60;;;;;;4984789;28;20783;-65
2024/03/03 01:31:14;;;;;;;22.33;21.60;;;21.00;55.60;;;;;;4987815;28;20530;-65
2024/03/03 01:33:41;;;;;;;22.50;21.70;;;21.00;55.60;;;;;;4987432;28;20525;-64
2024/03/03 01:36:11;;;;;;;22.70;21.90;;;21.00;55.60;;;;;;4985401;28;20448;-65
2024/03/03 01:38:37;;;;;;;22.10;21.40;;;21.00;55.60;;;;;;4984646;28;20528;-64
2024/03/03 01:41:04;;;;;;;22.50;21.70;;;21.00;55.60;;;;;;4986257;28;20810;-65
2024/03/03 01:43:32;;;;;;;22.83;21.93;;;21.00;55.70;;;;;;4987662;28;20467;-64
2024/03/03 01:45:59;;;;;;;23.17;22.07;;;21.00;55.60;;;;;;4986364;28;20465;-65
2024/03/03 01:48:26;;;;;;;21.97;21.17;;;21.00;55.70;;;;;;4984363;28;20446;-64
2024/03/03 01:50:54;;;;;;;22.87;22.07;;;20.90;55.60;;;;;;4984887;28;20444;-64
2024/03/03 01:53:21;;;;;;;23.43;22.63;;;21.00;55.70;;;;;;4987266;28;20828;-64
2024/03/03 01:55:48;;;;;;;22.77;22.00;;;20.90;55.60;;;;;;4987200;28;20474;-66
2024/03/03 01:58:18;;;;;;;23.17;22.37;;;20.90;55.60;;;;;;4984223;28;20436;-64
2024/03/03 02:00:46;;;;;;;22.80;22.00;;;20.90;55.60;;;;;;4984127;28;20467;-65
2024/03/03 02:03:13;;;;;;;22.83;22.03;;;20.90;55.60;;;;;;4986565;28;20489;-65
2024/03/03 02:05:41;;;;;;;22.43;21.63;;;20.90;55.60;;;;;;4983315;28;20450;-65
2024/03/03 02:08:08;;;;;;;22.97;22.17;;;20.90;55.70;;;;;;4986528;28;20463;-66
2024/03/03 02:10:35;;;;;;;23.47;22.67;;;20.90;55.70;;;;;;4987545;28;20526;-65
2024/03/03 02:13:02;;;;;;;22.90;22.10;;;20.90;55.60;;;;;;4985036;28;20466;-65
2024/03/03 02:15:29;;;;;;;22.83;22.03;;;20.90;55.60;;;;;;4983650;28;20531;-66
2024/03/03 02:17:57;;;;;;;22.70;21.90;;;20.80;55.50;;;;;;4979232;28;20454;-65
2024/03/03 02:20:24;;;;;;;23.30;22.50;;;20.80;55.60;;;;;;4987322;28;21003;-65
2024/03/03 02:22:52;;;;;;;23.10;22.30;;;20.80;55.50;;;;;;4986376;28;20521;-64
2024/03/03 02:25:19;;;;;;;23.33;22.53;;;20.80;55.50;;;;;;4983703;28;20447;-65
2024/03/03 02:27:46;;;;;;;23.20;22.40;;;20.80;55.50;;;;;;4982322;28;20443;-65
2024/03/03 02:30:13;;;;;;;23.17;22.37;;;20.80;55.60;;;;;;4990367;28;20957;-66
2024/03/03 02:32:39;;;;;;;23.23;22.40;;;20.80;55.60;;;;;;4983221;28;20436;-65
2024/03/03 02:35:06;;;;;;;23.00;22.20;;;20.80;55.60;;;;;;4985687;28;20440;-65
2024/03/03 02:37:33;;;;;;;22.90;22.10;;;20.80;55.60;;;;;;4984840;28;20444;-65
2024/03/03 02:40:03;;;;;;;23.50;22.70;;;20.80;55.60;;;;;;4979672;28;20444;-65
2024/03/03 02:42:29;;;;;;;23.83;22.97;;;20.80;55.60;;;;;;4986323;28;20490;-65
2024/03/03 02:44:56;;;;;;;23.23;22.40;;;20.80;55.60;;;;;;4986020;28;20442;-65
2024/03/03 02:47:23;;;;;;;23.23;22.53;;;20.80;55.70;;;;;;4982980;28;20448;-66
2024/03/03 02:49:50;;;;;;;23.33;22.43;;;20.80;55.70;;;;;;4983219;28;20448;-65
2024/03/03 02:52:17;;;;;;;22.80;22.00;;;20.80;55.80;;;;;;4974998;28;20443;-66
2024/03/03 02:54:43;;;;;;;22.80;22.00;;;20.80;55.80;;;;;;4983075;28;20495;-64
2024/03/03 02:57:11;;;;;;;22.60;21.80;;;20.80;55.80;;;;;;4987664;28;20819;-65
2024/03/03 02:59:38;;;;;;;22.60;21.80;;;20.80;55.80;;;;;;4983166;28;20479;-65
2024/03/03 03:02:05;;;;;;;23.43;22.63;;;20.80;55.80;;;;;;4983925;28;20845;-66
2024/03/03 03:04:32;;;;;;;23.23;22.43;;;20.80;55.80;;;;;;4986382;28;20477;-65
2024/03/03 03:06:58;;;;;;;23.03;22.23;;;20.80;55.80;;;;;;4985371;28;20451;-66
2024/03/03 03:09:25;;;;;;;22.27;21.53;;;20.80;55.80;;;;;;4983171;28;20448;-66
2024/03/03 03:11:52;;;;;;;23.63;22.73;;;20.70;55.80;;;;;;4984322;28;20451;-64
2024/03/03 03:14:20;;;;;;;22.80;21.90;;;20.70;55.80;;;;;;4985984;28;20885;-65
2024/03/03 03:16:47;;;;;;;23.43;22.63;;;20.70;55.80;;;;;;4986113;28;20445;-65
2024/03/03 03:19:14;;;;;;;23.60;22.77;;;20.70;55.80;;;;;;4983123;28;20478;-66
2024/03/03 03:21:41;;;;;;;23.20;22.40;;;20.70;55.80;;;;;;4981753;28;20860;-65
2024/03/03 03:24:07;;;;;;;23.80;22.93;;;20.70;55.80;;;;;;4984636;28;20467;-66
2024/03/03 03:26:35;;;;;;;23.30;22.50;;;20.70;55.80;;;;;;4986332;28;20501;-65
2024/03/03 03:29:03;;;;;;;22.80;21.90;;;20.70;55.80;;;;;;4984586;28;20439;-66
2024/03/03 03:31:31;;;;;;;24.43;23.53;;;20.70;55.70;;;;;;4982021;28;20439;-64
2024/03/03 03:33:58;;;;;;;35.30;33.90;;;20.70;55.80;;;;;;4982990;28;20551;-64
2024/03/03 03:36:25;;;;;;;23.10;22.30;;;20.70;55.80;;;;;;4985761;28;20450;-65
2024/03/03 03:38:51;;;;;;;24.57;23.67;;;20.70;55.80;;;;;;4985419;28;20439;-65
2024/03/03 03:41:19;;;;;;;23.50;22.70;;;20.70;55.80;;;;;;4973622;28;20838;-64
2024/03/03 03:43:47;;;;;;;33.73;32.53;;;20.70;55.80;;;;;;4982264;28;20539;-64
2024/03/03 03:46:14;;;;;;;23.40;22.60;;;20.70;55.80;;;;;;4985021;28;20440;-65
2024/03/03 03:48:42;;;;;;;23.83;22.93;;;20.70;55.80;;;;;;4985522;28;20444;-64
2024/03/03 03:51:09;;;;;;;25.23;24.33;;;20.70;55.80;;;;;;4982525;28;20443;-64
2024/03/03 03:53:35;;;;;;;24.00;23.20;;;20.70;55.80;;;;;;4982081;28;20526;-64
2024/03/03 03:56:02;;;;;;;23.90;23.03;;;20.70;55.80;;;;;;4982947;28;20563;-64
2024/03/03 03:58:29;;;;;;;24.00;23.10;;;20.60;55.80;;;;;;4985151;28;20493;-64
2024/03/03 04:00:55;;;;;;;23.90;23.00;;;20.60;55.80;;;;;;4984657;28;20455;-64
2024/03/03 04:03:22;;;;;;;22.83;22.03;;;20.60;55.80;;;;;;4981481;28;20487;-64
2024/03/03 04:05:50;;;;;;;23.43;22.63;;;20.60;55.80;;;;;;4981703;28;20444;-64
2024/03/03 04:08:17;;;;;;;22.83;21.93;;;20.60;55.80;;;;;;4984788;28;20443;-64
2024/03/03 04:10:44;;;;;;;24.57;23.67;;;20.60;55.80;;;;;;4984651;28;20450;-65
2024/03/03 04:13:11;;;;;;;23.17;22.37;;;20.60;55.80;;;;;;4982232;28;20467;-65
2024/03/03 04:15:37;;;;;;;23.40;22.60;;;20.60;55.70;;;;;;4981668;28;20444;-65
2024/03/03 04:18:04;;;;;;;24.20;23.40;;;20.60;55.70;;;;;;4982670;28;20818;-65
2024/03/03 04:20:31;;;;;;;24.00;23.10;;;20.60;55.60;;;;;;4984567;28;20443;-65
2024/03/03 04:22:59;;;;;;;24.97;24.07;;;20.60;55.60;;;;;;4984007;28;20834;-65
2024/03/03 04:25:25;;;;;;;23.10;22.30;;;20.60;55.60;;;;;;4981414;28;20451;-65
2024/03/03 04:27:52;;;;;;;23.77;22.93;;;20.60;55.60;;;;;;4981448;28;20447;-65
2024/03/03 04:30:19;;;;;;;35.13;33.83;;;20.60;55.60;;;;;;4983882;28;20447;-65
2024/03/03 04:32:46;;;;;;;23.03;22.23;;;20.60;55.60;;;;;;4984373;28;20442;-65
2024/03/03 04:35:14;;;;;;;23.70;22.70;;;20.60;55.50;;;;;;4982228;28;20447;-65
2024/03/03 04:37:41;;;;;;;23.60;22.80;;;20.60;55.50;;;;;;4981257;28;20857;-65
2024/03/03 04:40:10;;;;;;;23.77;22.97;;;20.60;55.50;;;;;;4982391;28;20454;-65
2024/03/03 04:42:37;;;;;;;23.93;23.03;;;20.60;55.50;;;;;;4983939;28;20482;-65
2024/03/03 04:45:06;;;;;;;29.63;28.40;;;20.60;55.50;;;;;;4983155;28;20450;-65
2024/03/03 04:47:33;;;;;;;29.40;28.30;;;20.60;55.50;;;;;;4981030;28;20937;-65
2024/03/03 04:49:59;;;;;;;28.47;27.50;;;20.60;55.50;;;;;;4980349;28;20436;-65
2024/03/03 04:52:26;;;;;;;29.03;27.93;;;20.60;55.50;;;;;;4984089;28;20435;-65
2024/03/03 04:54:53;;;;;;;23.87;22.97;;;20.60;55.50;;;;;;4984190;28;20848;-65
2024/03/03 04:57:21;;;;;;;24.73;23.83;;;20.60;55.50;;;;;;4981162;28;20444;-65
2024/03/03 04:59:48;;;;;;;23.63;22.83;;;20.60;55.50;;;;;;4980696;28;20467;-65
2024/03/03 05:02:15;;;;;;;24.13;23.23;;;20.60;55.60;;;;;;4982735;28;20487;-65
2024/03/03 05:04:41;;;;;;;24.63;23.73;;;20.60;55.60;;;;;;4984109;28;20467;-65
2024/03/03 05:07:08;;;;;;;23.80;22.93;;;20.60;55.70;;;;;;4982610;28;20442;-65
2024/03/03 05:09:35;;;;;;;23.70;22.90;;;20.60;55.70;;;;;;4980482;28;20964;-65
2024/03/03 05:12:02;;;;;;;24.40;23.60;;;20.60;55.70;;;;;;4978026;28;20439;-65
2024/03/03 05:14:30;;;;;;;24.63;23.70;;;20.60;55.70;;;;;;4983837;28;20474;-65
2024/03/03 05:16:56;;;;;;;24.30;23.30;;;20.60;55.80;;;;;;4984132;28;20443;-65
2024/03/03 05:19:24;;;;;;;24.93;24.03;;;20.60;55.80;;;;;;4983162;28;20446;-65
2024/03/03 05:21:51;;;;;;;25.73;24.73;;;20.60;55.80;;;;;;4983630;28;20474;-65
2024/03/03 05:24:18;;;;;;;25.47;24.57;;;20.60;55.70;;;;;;4981116;28;20487;-65
2024/03/03 05:26:44;;;;;;;24.97;24.07;;;20.60;55.70;;;;;;4980968;28;20454;-65
2024/03/03 05:29:11;;;;;;;24.70;23.80;;;20.50;55.70;;;;;;4981722;28;20444;-65
2024/03/03 05:31:42;;;;;;;26.00;25.10;;;20.60;55.80;;;;;;4983572;28;20439;-65
2024/03/03 05:34:12;;;;;;;24.47;23.57;;;20.60;55.80;;;;;;4982338;28;20463;-65
2024/03/03 05:36:40;;;;;;;24.80;23.90;;;20.50;56.30;;;;;;4980638;28;20451;-65
2024/03/03 05:39:07;;;;;;;24.87;23.90;;;20.60;55.80;;;;;;4973579;28;20527;-65
2024/03/03 05:41:34;;;;;;;25.30;24.40;;;20.60;55.80;;;;;;4983655;28;20443;-64
2024/03/03 05:44:01;;;;;;;27.30;26.30;;;20.50;55.80;;;;;;4983149;28;20513;-64
2024/03/03 05:46:28;;;;;;;25.43;24.53;;;20.50;55.80;;;;;;4980724;28;20440;-64
2024/03/03 05:48:56;;;;;;;25.40;24.40;;;20.50;55.80;;;;;;4980208;28;20814;-65
2024/03/03 05:51:23;;;;;;;25.63;24.73;;;20.60;55.80;;;;;;4983155;28;20450;-65
2024/03/03 05:53:50;;;;;;;23.93;23.10;;;20.50;55.80;;;;;;4983903;28;20459;-64
2024/03/03 05:56:17;;;;;;;25.67;24.70;;;20.50;55.80;;;;;;4981692;28;20454;-65
2024/03/03 05:58:44;;;;;;;24.80;23.80;;;20.50;55.80;;;;;;4980052;28;20949;-65
2024/03/03 06:01:11;;;;;;;23.60;22.70;;;20.50;55.80;;;;;;4982071;28;20829;-65
2024/03/03 06:03:38;;;;;;;23.13;22.23;;;20.60;55.90;;;;;;4987302;28;20847;-64
2024/03/03 06:06:08;;;;;;;24.73;23.83;;;20.50;55.90;;;;;;4986835;28;20450;-65
2024/03/03 06:08:35;;;;;;;26.10;25.10;;;20.50;55.80;;;;;;4984105;28;20550;-65
2024/03/03 06:11:02;;;;;;;24.70;23.80;;;20.50;55.90;;;;;;4983501;28;20444;-65
2024/03/03 06:13:28;;;;;;;25.80;24.90;;;20.50;55.90;;;;;;4987043;28;20470;-64
2024/03/03 06:15:55;;;;;;;26.27;25.27;;;20.50;55.90;;;;;;4987192;28;20582;-64
2024/03/03 06:18:22;;;;;;;24.90;24.00;;;20.50;55.90;;;;;;4983721;28;20440;-65
2024/03/03 06:20:48;;;;;;;24.77;23.87;;;20.50;55.90;;;;;;4983808;28;20455;-65
2024/03/03 06:23:16;;;;;;;26.00;25.00;;;20.50;55.90;;;;;;4983271;28;20486;-65
2024/03/03 06:25:43;;;;;;;25.00;24.10;;;20.50;55.90;;;;;;4981489;28;20445;-65
2024/03/03 06:28:10;;;;;;;24.53;23.63;;;20.50;55.90;;;;;;4985201;28;20435;-65
2024/03/03 06:30:36;;;;;;;24.70;23.80;;;20.50;56.00;;;;;;4977009;28;20474;-65
2024/03/03 06:33:03;;;;;;;27.07;26.17;;;20.50;55.90;;;;;;4983327;28;20456;-65
2024/03/03 06:35:30;;;;;;;27.07;25.87;;;20.50;56.00;;;;;;4986715;28;20806;-65
2024/03/03 06:37:57;;;;;;;26.10;25.20;;;20.50;56.00;;;;;;4986796;28;20431;-65
2024/03/03 06:40:25;;;;;;;25.80;24.90;;;20.50;56.10;;;;;;4983478;28;20937;-65
2024/03/03 06:42:52;;;;;;;28.23;27.13;;;20.50;56.20;;;;;;4983023;28;20483;-65
2024/03/03 06:45:18;;;;;;;26.60;25.60;;;20.50;56.20;;;;;;4985323;28;20828;-65
2024/03/03 06:47:45;;;;;;;27.13;26.03;;;20.50;56.30;;;;;;4986484;28;20446;-65
2024/03/03 06:50:12;;;;;;;27.50;26.33;;;20.50;56.30;;;;;;4985091;28;20446;-65
2024/03/03 06:52:39;;;;;;;25.83;24.93;;;20.50;56.40;;;;;;4982825;28;20440;-65
2024/03/03 06:55:07;;;;;;;26.00;25.00;;;20.50;56.30;;;;;;4983702;28;20824;-65
2024/03/03 06:57:35;;;;;;;25.57;24.67;;;20.50;56.30;;;;;;4986715;28;20873;-65
2024/03/03 07:00:03;;;;;;;25.57;24.67;;;20.50;56.30;;;;;;4986224;28;20450;-66
2024/03/03 07:05:10;;;;;;;26.60;25.60;;;20.50;56.40;;;;;;4983667;28;20443;-65
2024/03/03 07:07:37;;;;;;;27.67;26.67;;;20.50;56.50;;;;;;4986564;28;20448;-65
2024/03/03 07:10:04;;;;;;;27.77;26.77;;;20.50;56.50;;;;;;4985769;28;20587;-66
2024/03/03 07:12:31;;;;;;;27.50;26.50;;;20.50;56.50;;;;;;4981795;28;20436;-67
2024/03/03 07:14:59;;;;;;;27.73;26.33;;;20.50;57.10;;;;;;4982766;28;20440;-67
2024/03/03 07:17:26;;;;;;;28.20;27.13;;;20.50;57.10;;;;;;4985659;28;20447;-67
2024/03/03 07:19:53;;;;;;;29.47;28.37;;;20.60;56.90;;;;;;4981015;28;20446;-65
2024/03/03 07:22:20;;;;;;;28.20;27.20;;;20.60;57.00;;;;;;4983252;28;20827;-64
2024/03/03 07:24:46;;;;;;;29.30;28.30;;;20.60;57.00;;;;;;4982325;28;20483;-64
2024/03/03 07:27:13;;;;;;;29.43;28.43;;;20.60;57.30;;;;;;4983558;28;20451;-65
2024/03/03 07:29:44;;;;;;;29.30;28.20;;;20.60;58.00;;;;;;4985473;28;20446;-64
2024/03/03 07:32:11;;;;;;;29.17;28.17;;;20.70;57.60;;;;;;4984779;28;20463;-65
2024/03/03 07:34:38;;;;;;;29.90;28.60;;;20.70;57.50;;;;;;4982357;28;20460;-65
2024/03/03 07:37:05;;;;;;;29.40;28.13;;;20.80;57.60;;;;;;4982294;28;20444;-65
2024/03/03 07:39:32;;;;;;;31.27;29.90;;;20.80;57.50;;;;;;4981788;28;20451;-63
2024/03/03 07:41:59;;;;;;;28.77;27.67;;;20.80;57.20;;;;;;4982055;28;20444;-65
2024/03/03 07:44:26;;;;;;;28.97;27.87;;;20.80;57.10;;;;;;4984921;28;20988;-65
2024/03/03 07:46:54;;;;;;;28.90;27.90;;;20.80;57.10;;;;;;4985625;28;20443;-65
2024/03/03 07:49:22;;;;;;;24.77;23.77;;;20.80;57.20;;;;;;4979397;28;20438;-69
2024/03/03 07:51:49;;;;;;;28.63;27.53;;;20.80;57.20;;;;;;4985495;28;20208;-58
2024/03/03 07:54:15;;;;;;;28.60;27.50;;;20.90;56.90;;;;;;4984052;28;20470;-64
2024/03/03 07:56:42;;;;;;;28.67;27.67;;;21.00;56.70;;;;;;4980727;28;20440;-66
2024/03/03 07:59:09;;;;;;;29.00;27.90;;;21.00;56.70;;;;;;4980079;28;20449;-64
2024/03/03 08:01:35;;;;;;;27.57;26.67;;;21.00;56.60;;;;;;4985125;28;20447;-65
2024/03/03 08:04:03;;;;;;;27.63;26.63;;;21.00;56.60;;;;;;4984926;28;20486;-63
2024/03/03 08:06:31;;;;;;;28.93;27.53;;;21.00;57.10;;;;;;4981771;28;20452;-62
2024/03/03 08:09:01;;;;;;;28.23;27.23;;;21.00;56.90;;;;;;4973472;28;20455;-62
2024/03/03 08:11:27;;;;;;;28.57;27.57;;;21.00;56.90;;;;;;4981813;28;20726;-61
2024/03/03 08:13:55;;;;;;;27.93;26.93;;;21.00;56.70;;;;;;4981540;28;20467;-62
2024/03/03 08:16:22;;;;;;;29.07;27.87;;;21.10;57.00;;;;;;4981667;28;20510;-60
2024/03/03 08:18:49;;;;;;;28.57;27.53;;;21.10;57.10;;;;;;4977587;28;20467;-62
2024/03/03 08:21:16;;;;;;;28.17;27.17;;;21.10;57.10;;;;;;4983299;28;20956;-60
2024/03/03 08:23:45;;;;;;;29.40;28.20;;;21.10;57.00;;;;;;4981383;28;20491;-58
2024/03/03 08:26:12;;;;;;;29.53;28.43;;;21.20;57.00;;;;;;4981954;28;20473;-63
2024/03/03 08:28:39;;;;;;;28.60;27.57;;;21.10;57.00;;;;;;4984543;28;20445;-62
2024/03/03 08:31:06;;;;;;;29.67;28.57;;;21.20;57.00;;;;;;4984404;28;20450;-60
2024/03/03 08:33:33;;;;;;;29.00;27.90;;;21.20;57.20;;;;;;4973217;28;20470;-60
2024/03/03 08:36:00;;;;;;;29.00;27.90;;;21.20;57.10;;;;;;4981042;28;20449;-57
2024/03/03 08:38:28;;;;;;;28.63;27.53;;;21.20;57.00;;;;;;4983774;28;20448;-63
2024/03/03 08:40:56;;;;;;;28.47;27.37;;;21.30;57.00;;;;;;4984365;28;20454;-60
2024/03/03 08:43:23;;;;;;;28.30;27.20;;;21.30;56.70;;;;;;4982140;28;20490;-61
2024/03/03 08:45:51;;;;;;;24.87;23.87;;;21.30;56.70;;;;;;4980009;28;20465;-64
2024/03/03 08:48:18;;;;;;;29.03;27.93;;;21.30;56.60;;;;;;4989197;28;20451;-64
2024/03/03 08:50:47;;;;;;;31.90;30.60;;;21.40;56.50;;;;;;4980988;28;20488;-60
2024/03/03 08:53:14;;;;;;;28.93;27.77;;;21.50;55.40;;;;;;4981399;28;20495;-58
2024/03/03 08:55:41;;;;;;;30.80;29.50;;;21.40;54.60;;;;;;4984385;28;20522;-58
2024/03/03 08:58:11;;;;;;;28.60;27.50;;;21.40;54.50;;;;;;4980980;28;20451;-64
2024/03/03 09:00:37;;;;;;;30.10;28.80;;;21.40;55.40;;;;;;4973621;28;21112;-63
2024/03/03 09:03:04;;;;;;;25.40;24.40;;;21.50;56.10;;;;;;4979633;28;20442;-63
2024/03/03 09:05:31;;;;;;;31.97;28.97;;;21.50;56.00;;;;;;4975836;28;20216;-64
2024/03/03 09:07:58;;;;;;;29.00;27.80;;;21.50;55.70;;;;;;4984231;28;20447;-63
2024/03/03 09:10:25;;;;;;;29.10;27.80;;;21.60;55.70;;;;;;4982093;28;20537;-64
2024/03/03 09:12:53;;;;;;;28.03;26.93;;;21.60;55.60;;;;;;4982623;28;20472;-63
2024/03/03 09:15:21;;;;;;;28.57;27.40;;;21.60;55.70;;;;;;4981847;28;20447;-63
2024/03/03 09:17:48;;;;;;;27.87;26.77;;;21.60;56.00;;;;;;4983936;28;20462;-64
2024/03/03 09:20:14;;;;;;;28.30;26.50;;;21.60;56.00;;;;;;4983092;28;20450;-63
2024/03/03 09:22:41;;;;;;;28.87;27.50;;;21.60;56.10;;;;;;4979902;28;20452;-63
2024/03/03 09:25:08;;;;;;;29.33;28.10;;;21.60;56.30;;;;;;4977235;28;20490;-63
2024/03/03 09:27:36;;;;;;;28.30;27.03;;;21.60;56.60;;;;;;4983830;28;20450;-63
2024/03/03 09:30:03;;;;;;;28.17;27.07;;;21.60;56.70;;;;;;4984134;28;20451;-63
2024/03/03 09:32:31;;;;;;;29.27;27.47;;;21.60;56.80;;;;;;4980648;28;20541;-63
2024/03/03 09:34:58;;;;;;;28.83;27.63;;;21.60;56.60;;;;;;4980184;28;20937;-63
2024/03/03 09:37:25;;;;;;;29.10;27.80;;;21.60;57.10;;;;;;4984981;28;20447;-64
2024/03/03 09:39:52;;;;;;;29.77;28.00;;;21.60;57.90;;;;;;4987559;28;20447;-63
2024/03/03 09:42:20;;;;;;;28.33;27.00;;;21.60;59.00;;;;;;4978755;28;20443;-63
2024/03/03 09:44:51;;;;;;;27.93;26.83;;;21.60;59.30;;;;;;4987537;28;20509;-64
2024/03/03 09:47:19;;;;;;;29.20;27.43;;;21.60;59.10;;;;;;4987633;28;20463;-63
2024/03/03 09:49:49;;;;;;;28.10;26.57;;;21.70;59.00;;;;;;4987730;28;20440;-64
2024/03/03 09:52:17;;;;;;;28.70;27.37;;;21.70;58.90;;;;;;4977335;28;20539;-64
2024/03/03 09:54:44;;;;;;;28.23;27.03;;;21.70;59.10;;;;;;4987485;28;20455;-62
2024/03/03 09:57:13;;;;;;;28.00;26.80;;;21.70;58.80;;;;;;4987428;28;20458;-62
2024/03/03 09:59:41;;;;;;;28.33;27.13;;;21.70;58.70;;;;;;4976464;28;20444;-64
2024/03/03 10:02:15;;;;;;;28.90;27.40;;;21.80;58.70;;;;;;4983363;28;20452;-62
2024/03/03 10:04:44;;;;;;;28.30;26.73;;;21.80;58.60;;;;;;4976403;28;20553;-63
2024/03/03 10:07:18;;;;;;;28.30;27.20;;;21.80;58.60;;;;;;4983784;28;20451;-64
2024/03/03 10:09:48;;;;;;;27.53;26.43;;;21.80;58.60;;;;;;4976816;28;20463;-64
2024/03/03 10:12:16;;;;;;;29.07;27.60;;;21.80;58.50;;;;;;4989080;28;20443;-64
2024/03/03 10:14:44;;;;;;;27.67;26.53;;;21.80;58.90;;;;;;4983805;28;20467;-64
2024/03/03 10:17:11;;;;;;;27.97;26.83;;;21.80;58.40;;;;;;4983648;28;20510;-64
2024/03/03 10:19:38;;;;;;;29.77;28.40;;;21.90;58.70;;;;;;4983741;28;20804;-62
2024/03/03 10:22:10;;;;;;;29.20;27.60;;;21.90;58.30;;;;;;4988215;28;20456;-63
2024/03/03 10:24:39;;;;;;;28.17;27.00;;;21.90;58.20;;;;;;4986799;28;20877;-62
2024/03/03 10:27:07;;;;;;;29.00;27.70;;;21.90;57.90;;;;;;4986857;28;20443;-62
2024/03/03 10:29:34;;;;;;;28.57;27.33;;;21.90;58.10;;;;;;4984028;28;20836;-61
2024/03/03 10:32:09;;;;;;;30.73;29.53;;;21.90;58.00;;;;;;4985311;28;20451;-60
2024/03/03 10:34:36;;;;;;;28.20;27.10;;;21.90;58.00;;;;;;4983686;28;20541;-59
2024/03/03 10:37:05;;;;;;;28.23;27.13;;;21.90;58.00;;;;;;4986384;28;20439;-64
2024/03/03 10:39:33;;;;;;;28.50;27.20;;;21.90;58.30;;;;;;4984019;28;20455;-63
2024/03/03 10:42:01;;;;;;;28.80;27.60;;;21.90;58.20;;;;;;4982441;28;20497;-61
2024/03/03 10:44:30;;;;;;;28.10;26.80;;;21.90;58.10;;;;;;4984738;28;20566;-63
2024/03/03 10:46:58;;;;;;;27.23;26.13;;;21.90;57.90;;;;;;4986400;28;20446;-64
2024/03/03 10:49:26;;;;;;;28.20;26.90;;;21.90;57.80;;;;;;4983906;28;20810;-64
2024/03/03 10:51:52;;;;;;;27.70;26.50;;;21.90;57.70;;;;;;4983848;28;20435;-63
2024/03/03 10:54:19;;;;;;;27.17;25.98;;;22.00;57.70;;;;;;4985347;28;20926;-65
2024/03/03 10:56:47;;;;;;;28.20;27.10;;;22.00;57.70;;;;;;4983020;28;20227;-64
2024/03/03 10:59:17;;;;;;;27.33;26.20;;;22.00;57.80;;;;;;4982881;28;20968;-63
2024/03/03 11:01:45;;;;;;;27.97;26.87;;;22.00;58.60;;;;;;4975464;28;20431;-63
2024/03/03 11:04:14;;;;;;;27.10;26.00;;;22.10;58.70;;;;;;4985705;28;20494;-66
2024/03/03 11:06:43;;;;;;;28.90;27.70;;;22.10;59.00;;;;;;4974864;28;20443;-66
2024/03/03 11:09:10;;;;;;;28.40;27.20;;;22.10;58.70;;;;;;4983157;28;20455;-63
2024/03/03 11:11:41;;;;;;;28.60;27.20;;;22.10;58.40;;;;;;4984893;28;20439;-65
2024/03/03 11:14:12;;;;;;;27.67;26.47;;;22.10;58.40;;;;;;4985558;28;20556;-64
2024/03/03 11:16:45;;;;;;;27.50;26.20;;;22.10;58.70;;;;;;4983373;28;20443;-65
2024/03/03 11:19:14;;;;;;;26.90;25.80;;;22.10;58.70;;;;;;4982461;28;20452;-65
2024/03/03 11:21:50;;;;;;;25.35;24.15;;;22.20;58.70;;;;;;4984435;28;20436;-66
2024/03/03 11:24:28;;;;;;;27.67;26.37;;;22.20;58.90;;;;;;4985453;28;20223;-63
2024/03/03 11:27:02;;;;;;;26.67;25.57;;;22.20;58.50;;;;;;4982483;28;21004;-64
2024/03/03 11:29:29;;;;;;;27.33;26.10;;;22.30;58.50;;;;;;4984177;28;20455;-61
2024/03/03 11:31:58;;;;;;;27.90;26.70;;;22.30;58.30;;;;;;4984802;28;20924;-61
2024/03/03 11:34:26;;;;;;;26.97;25.87;;;22.20;58.00;;;;;;4984575;28;20451;-61
2024/03/03 11:36:54;;;;;;;27.00;25.90;;;22.20;58.00;;;;;;4982131;28;20436;-61
2024/03/03 11:39:24;;;;;;;27.80;26.60;;;22.20;58.10;;;;;;4982461;28;20455;-60
2024/03/03 11:41:52;;;;;;;27.30;26.20;;;22.20;58.10;;;;;;4984762;28;20439;-60
2024/03/03 11:44:48;;;;;;;27.00;25.90;;;22.20;58.00;;;;;;4984564;28;20808;-60
2024/03/03 11:47:17;;;;;;;27.17;25.97;;;22.20;57.90;;;;;;4981933;28;20444;-60
2024/03/03 11:49:45;;;;;;;27.97;26.80;;;22.20;57.90;;;;;;4974154;28;20444;-60
2024/03/03 11:52:12;;;;;;;28.53;27.33;;;22.10;57.90;;;;;;4986263;28;20501;-59
2024/03/03 11:54:41;;;;;;;28.83;27.63;;;22.10;57.80;;;;;;4982089;28;20538;-57
2024/03/03 11:57:10;;;;;;;28.20;27.10;;;22.10;57.70;;;;;;4981799;28;20452;-63
2024/03/03 11:59:45;;;;;;;31.70;30.00;;;22.10;57.80;;;;;;4983984;28;20503;-63
2024/03/03 12:02:17;;;;;;;29.50;28.23;;;22.20;58.00;;;;;;4984371;28;20450;-61
2024/03/03 12:04:44;;;;;;;28.93;27.63;;;22.20;58.30;;;;;;4973566;28;21184;-61
2024/03/03 12:07:15;;;;;;;28.17;26.97;;;22.10;57.10;;;;;;4981795;28;20456;-61
2024/03/03 12:09:43;;;;;;;29.33;28.03;;;22.10;56.70;;;;;;4984672;28;20442;-61
2024/03/03 12:12:10;;;;;;;28.30;27.00;;;22.10;56.50;;;;;;4984169;28;20443;-61
2024/03/03 12:14:38;;;;;;;30.03;28.67;;;22.00;55.50;;;;;;4982041;28;20474;-62
2024/03/03 12:17:06;;;;;;;29.07;27.87;;;22.00;54.70;;;;;;4981417;28;20444;-61
2024/03/03 12:19:35;;;;;;;29.37;28.17;;;22.00;54.50;;;;;;4983367;28;20944;-61
2024/03/03 12:22:02;;;;;;;28.57;27.43;;;21.90;53.80;;;;;;4975552;28;20444;-64
2024/03/03 12:24:30;;;;;;;29.30;28.20;;;21.90;53.70;;;;;;4982387;28;20499;-61
2024/03/03 12:26:57;;;;;;;27.90;26.80;;;21.90;53.40;;;;;;4984542;28;20442;-61
2024/03/03 12:29:24;;;;;;;28.00;26.70;;;21.90;52.90;;;;;;4983818;28;20443;-59
2024/03/03 12:31:51;;;;;;;28.67;27.57;;;21.90;52.60;;;;;;4980564;28;20971;-61